Rohrbach, Austria

3:42 PM CEST on June 02, 2015 (GMT +0200)
Kerschbaum/Schlaegl im Muehlviertel | | Change Station
CLOSE
Current Station
Personal Weather Station
Location: Kerschbaum, OBERöSTERREICH
Elevation: 2008 ft
Nearby Weather Stations

Elev 2008 ft 48.65 °N, 13.95 °E | Updated 9 seconds ago

Scattered Clouds
Scattered Clouds
75.0 °F
Feels Like 78 °F
N
3.6
Wind Variable Wind from NNW
Gusts 4.9 mph

Today
High -- | Low -- °F
--% Chance of Precip.
Yesterday
High -- | Low -- °F
Precip. -- in
5:05 AM 8:58 PM
Full, 100% visible
Pressure 30.09 in
Visibility 6.2 miles
Clouds Few 4200 ft
Scattered Clouds 30000 ft
Heat Index 78 °F
Dew Point 51 °F
Humidity 43%
Rainfall 0.04 in
Snow Depth Not available.
UV 2.0 out of 12
Pollen Not available.
Air Quality Not available.
Flu Activity Not available.
METAR LOWL 021320Z VRB02KT 9999 FEW042 SCT300 25/12 Q1019 NOSIG

More Conditions Fewer Conditions

Pressure 30.09 in
Visibility 6.2 miles
Clouds Few 4200 ft
Scattered Clouds 30000 ft
Heat Index 78 °F
Dew Point 51 °F
Humidity 43%
Rainfall 0.04 in
Snow Depth Not available.
UV 2.0 out of 12
Pollen Not available.
Air Quality Not available.
Flu Activity Not available.
METAR LOWL 021320Z VRB02KT 9999 FEW042 SCT300 25/12 Q1019 NOSIG

More Conditions Fewer Conditions

10-Day Weather Forecast

Almanac

Astronomy

Jun. 02, 2015 Rise Set
Actual Time
Civil Twilight
Nautical Twilight
Astronomical Twilight
Moon
Length of Visible Light
Length of Day
Tomorrow will be .
, % of the Moon is Illuminated

Today's Extremes

Country Highs Country Lows

Community

WunderPhotos

Upload Photos

1,825,914 photos uploaded!

WunderBlogs® & News

Nearby

Air Quality

  Air Quality AQ Index Pollutant
Not available.

Snow Depth

Station Depth Elevation

Earthquake Activity

City Distance Mag. Time & Date
Minimum magnitude displayed is 2.5.

Coastal Water Temperatures

Place Temperature

Stations

Nearby Weather Stations

Station Location Temp. Windchill Dew Point Humidity Wind Precip. Elev Updated Type